Time;durP1;ratioP1;P1;durP2;ratioP2;P2;SDS_P1;SDS_P2;PMS_P1;PMS_P2;Temp;Humidity;BMP_temperature;BMP_pressure;BME280_temperature;BME280_humidity;BME280_pressure;Samples;Min_cycle;Max_cycle;Signal;HPM_P1;HPM_P2
2021/04/12 00:01:15;;;;;;;4.93;1.52;;;6.90;95.60;;;;;;4970052;28;20035;-78
2021/04/12 00:03:51;;;;;;;6.60;1.85;;;7.00;95.50;;;;;;4970504;28;20572;-78
2021/04/12 00:06:22;;;;;;;5.90;1.42;;;7.00;95.40;;;;;;4985918;28;20047;-78
2021/04/12 00:08:48;;;;;;;6.53;1.70;;;6.90;95.50;;;;;;4970435;28;20031;-78
2021/04/12 00:11:31;;;;;;;9.32;1.70;;;7.00;95.60;;;;;;4969187;28;20038;-78
2021/04/12 00:13:59;;;;;;;3.45;1.35;;;7.00;95.60;;;;;;4972058;28;20031;-79
2021/04/12 00:16:40;;;;;;;5.35;2.35;;;6.80;95.50;;;;;;4969778;28;20027;-79
2021/04/12 00:19:21;;;;;;;4.03;1.40;;;6.70;95.60;;;;;;4970836;28;20053;-79
2021/04/12 00:21:52;;;;;;;4.63;1.48;;;6.90;95.80;;;;;;4970447;28;20367;-79
2021/04/12 00:24:30;;;;;;;5.47;1.35;;;7.00;95.60;;;;;;4970613;28;20058;-78
2021/04/12 00:27:06;;;;;;;5.65;1.40;;;7.00;95.50;;;;;;4985866;28;20046;-78
2021/04/12 00:29:55;;;;;;;2.53;1.10;;;6.90;95.70;;;;;;4970382;28;20030;-79
2021/04/12 00:32:40;;;;;;;6.40;1.48;;;7.00;95.50;;;;;;4970644;28;20022;-81
2021/04/12 00:35:27;;;;;;;5.53;1.80;;;6.80;95.50;;;;;;4970448;28;20247;-80
2021/04/12 00:38:21;;;;;;;7.72;1.98;;;6.90;95.40;;;;;;4973347;28;20142;-80
2021/04/12 00:40:59;;;;;;;7.90;2.00;;;6.90;95.30;;;;;;4974913;28;20031;-79
2021/04/12 00:43:49;;;;;;;6.00;1.70;;;6.60;95.40;;;;;;4973144;28;20039;-79
2021/04/12 00:46:39;;;;;;;7.60;1.95;;;6.50;95.70;;;;;;4973807;28;20461;-79
2021/04/12 00:49:13;;;;;;;4.07;1.75;;;6.60;95.60;;;;;;4974412;28;20038;-79
2021/04/12 00:51:55;;;;;;;10.43;2.33;;;6.50;95.40;;;;;;4974184;28;20126;-79
2021/04/12 00:54:34;;;;;;;5.30;2.15;;;6.40;95.60;;;;;;4973883;28;20544;-79
2021/04/12 00:57:39;;;;;;;4.40;1.80;;;6.40;95.70;;;;;;4973363;28;20094;-79
2021/04/12 01:00:14;;;;;;;3.45;1.80;;;6.40;95.70;;;;;;4973863;28;20303;-81
2021/04/12 01:02:51;;;;;;;4.28;1.45;;;6.50;95.60;;;;;;4973657;28;20054;-78
2021/04/12 01:05:48;;;;;;;3.92;1.85;;;6.20;95.80;;;;;;4973866;28;20027;-78
2021/04/12 01:08:22;;;;;;;3.38;1.58;;;6.40;95.80;;;;;;4973768;28;20031;-78
2021/04/12 01:11:09;;;;;;;5.93;1.70;;;6.40;95.70;;;;;;4974563;28;20077;-79
2021/04/12 01:13:47;;;;;;;9.27;1.85;;;6.40;95.80;;;;;;4974270;28;20420;-80
2021/04/12 01:16:31;;;;;;;5.90;1.38;;;6.50;95.80;;;;;;4973067;28;20062;-78
2021/04/12 01:19:03;;;;;;;6.22;1.40;;;6.50;95.70;;;;;;4972816;28;20035;-78
2021/04/12 01:22:07;;;;;;;4.13;1.30;;;6.40;95.60;;;;;;4988700;28;20041;-79
2021/04/12 01:25:06;;;;;;;6.43;1.33;;;6.40;95.80;;;;;;4972477;28;20027;-79
2021/04/12 01:28:03;;;;;;;2.92;0.90;;;6.30;95.70;;;;;;4973485;28;20043;-80
2021/04/12 01:31:06;;;;;;;2.40;1.00;;;6.30;96.10;;;;;;4973188;28;20043;-79
2021/04/12 01:34:06;;;;;;;8.35;1.40;;;6.30;96.00;;;;;;4972429;28;20077;-78
2021/04/12 01:37:07;;;;;;;6.45;1.60;;;6.20;96.30;;;;;;5000373;28;20511;-79
2021/04/12 01:39:47;;;;;;;4.95;1.20;;;6.20;96.40;;;;;;5012283;28;20038;-78
2021/04/12 01:42:33;;;;;;;5.85;1.80;;;6.20;96.30;;;;;;5011960;28;20045;-78
2021/04/12 01:45:19;;;;;;;4.40;1.42;;;6.20;96.50;;;;;;5012027;28;20235;-78
2021/04/12 01:48:25;;;;;;;9.27;1.85;;;6.10;96.60;;;;;;5011791;28;20092;-78
2021/04/12 01:51:12;;;;;;;6.35;1.70;;;6.20;96.70;;;;;;4999119;28;20030;-77
2021/04/12 01:54:15;;;;;;;2.28;1.15;;;6.20;96.70;;;;;;5011133;28;20117;-78
2021/04/12 01:57:11;;;;;;;8.40;1.67;;;6.20;96.70;;;;;;5011945;28;20105;-78
2021/04/12 01:59:55;;;;;;;4.57;1.63;;;6.00;96.90;;;;;;5012234;28;20037;-78
2021/04/12 02:02:39;;;;;;;5.57;1.92;;;6.00;97.00;;;;;;5010647;28;20460;-79
2021/04/12 02:05:35;;;;;;;5.63;1.45;;;6.00;96.90;;;;;;5010653;28;20460;-77
2021/04/12 02:08:19;;;;;;;5.43;1.55;;;6.00;97.00;;;;;;5013232;28;20022;-80
2021/04/12 02:11:12;;;;;;;3.72;1.73;;;6.00;97.00;;;;;;5011952;28;20092;-79
2021/04/12 02:13:52;;;;;;;7.68;1.45;;;5.90;97.00;;;;;;5011833;28;20038;-79
2021/04/12 02:16:22;;;;;;;5.72;1.25;;;5.90;96.90;;;;;;5010788;28;20057;-79
2021/04/12 02:18:56;;;;;;;6.65;1.90;;;5.90;97.00;;;;;;5010227;28;20060;-78
2021/04/12 02:22:09;;;;;;;7.72;1.38;;;5.80;97.00;;;;;;5011659;28;20034;-79
2021/04/12 02:24:51;;;;;;;1.98;1.20;;;5.90;97.00;;;;;;5011379;28;20423;-80
2021/04/12 02:27:49;;;;;;;3.08;1.08;;;6.00;97.00;;;;;;5010847;28;20080;-78
2021/04/12 02:30:30;;;;;;;3.20;1.23;;;5.90;97.00;;;;;;4995150;28;20030;-78
2021/04/12 02:33:23;;;;;;;4.63;1.50;;;6.00;97.10;;;;;;5011816;28;20132;-78
2021/04/12 02:36:11;;;;;;;5.72;1.58;;;6.00;97.00;;;;;;5010242;28;20026;-81
2021/04/12 02:38:45;;;;;;;3.47;1.42;;;5.70;97.00;;;;;;5011752;28;20034;-80
2021/04/12 02:41:25;;;;;;;7.85;1.45;;;5.90;97.10;;;;;;5012181;28;20076;-80
2021/04/12 02:44:03;;;;;;;5.05;1.98;;;6.00;97.00;;;;;;5012083;28;20032;-79
2021/04/12 02:46:53;;;;;;;9.70;1.63;;;6.00;96.90;;;;;;5010384;28;20387;-80
2021/04/12 02:49:52;;;;;;;3.65;1.65;;;5.90;96.90;;;;;;5009965;28;20041;-80
2021/04/12 02:52:27;;;;;;;5.03;1.60;;;5.90;96.90;;;;;;5010120;28;20045;-79
2021/04/12 02:55:34;;;;;;;6.20;1.60;;;5.90;97.00;;;;;;5011008;28;20048;-78
2021/04/12 02:58:11;;;;;;;3.45;1.63;;;5.70;96.90;;;;;;5000702;28;20045;-79
2021/04/12 03:01:07;;;;;;;9.18;1.88;;;5.70;97.00;;;;;;5010792;28;20475;-79
2021/04/12 03:03:35;;;;;;;13.27;2.38;;;5.80;97.20;;;;;;5011113;28;20037;-80
2021/04/12 03:06:10;;;;;;;5.15;1.50;;;5.90;97.00;;;;;;5009990;28;20460;-77
2021/04/12 03:08:42;;;;;;;6.13;1.88;;;5.90;96.90;;;;;;5009421;28;20030;-78
2021/04/12 03:11:45;;;;;;;8.23;1.67;;;5.90;96.90;;;;;;5009592;28;20034;-77
2021/04/12 03:14:43;;;;;;;4.93;1.65;;;5.80;96.80;;;;;;5009470;28;20028;-77
2021/04/12 03:17:23;;;;;;;8.90;2.08;;;5.80;96.90;;;;;;5010440;28;20084;-77
2021/04/12 03:20:14;;;;;;;3.28;1.63;;;5.70;97.10;;;;;;5012499;28;20022;-76
2021/04/12 03:23:18;;;;;;;4.30;1.80;;;5.70;97.10;;;;;;5011536;28;20364;-76
2021/04/12 03:26:09;;;;;;;3.53;1.83;;;5.40;97.30;;;;;;5010667;28;20040;-78
2021/04/12 03:28:53;;;;;;;7.03;1.70;;;5.60;97.30;;;;;;5010545;28;20069;-78
2021/04/12 03:31:41;;;;;;;7.85;2.70;;;5.80;97.10;;;;;;5009125;28;20048;-79
2021/04/12 03:34:29;;;;;;;9.32;1.90;;;5.80;97.00;;;;;;5009277;28;20041;-79
2021/04/12 03:37:11;;;;;;;5.22;2.38;;;5.70;97.20;;;;;;5008848;28;20064;-79
2021/04/12 03:40:07;;;;;;;5.57;2.17;;;5.80;97.10;;;;;;5009941;28;20040;-79
2021/04/12 03:43:10;;;;;;;9.02;2.40;;;5.50;97.00;;;;;;5010127;28;20380;-77
2021/04/12 03:46:08;;;;;;;6.15;2.00;;;5.50;97.20;;;;;;5009651;28;20132;-78
2021/04/12 03:49:16;;;;;;;6.45;2.30;;;5.50;97.20;;;;;;5010388;28;20030;-78
2021/04/12 03:51:53;;;;;;;3.67;2.05;;;5.60;97.10;;;;;;4990235;28;20046;-77
2021/04/12 03:54:34;;;;;;;8.02;2.05;;;5.60;97.20;;;;;;5009846;28;20038;-77
2021/04/12 03:57:24;;;;;;;6.15;2.38;;;5.60;97.00;;;;;;5009659;28;20152;-77
2021/04/12 03:59:55;;;;;;;5.63;2.03;;;5.60;97.00;;;;;;5010105;28;20034;-78
2021/04/12 04:02:38;;;;;;;4.70;2.53;;;5.30;97.10;;;;;;5009800;28;20022;-79
2021/04/12 04:05:41;;;;;;;3.85;2.10;;;5.40;97.30;;;;;;5009974;28;20060;-78
2021/04/12 04:08:43;;;;;;;9.85;2.40;;;5.40;97.30;;;;;;5010625;28;20025;-78
2021/04/12 04:11:16;;;;;;;6.88;2.22;;;5.20;97.30;;;;;;5006428;28;20096;-78
2021/04/12 04:14:06;;;;;;;7.40;2.55;;;5.20;97.50;;;;;;5017237;28;20514;-78
2021/04/12 04:17:09;;;;;;;6.85;2.30;;;5.20;97.50;;;;;;5016517;28;20050;-78
2021/04/12 04:19:52;;;;;;;8.13;3.05;;;5.20;97.50;;;;;;5016894;28;20475;-78
2021/04/12 04:22:52;;;;;;;6.22;2.42;;;5.20;97.50;;;;;;5016179;28;20042;-78
2021/04/12 04:25:30;;;;;;;11.23;2.70;;;5.20;97.50;;;;;;5015208;28;20038;-78
2021/04/12 04:28:10;;;;;;;;;;;5.30;97.50;;;;;;5015483;28;20060;-77
2021/04/12 04:31:06;;;;;;;5.53;2.20;;;5.40;97.40;;;;;;5016479;28;19919;-77
2021/04/12 04:34:06;;;;;;;5.60;2.60;;;5.40;97.30;;;;;;5015160;28;20117;-77
2021/04/12 04:37:09;;;;;;;8.30;2.25;;;5.40;97.30;;;;;;5016243;28;20053;-76
2021/04/12 04:40:05;;;;;;;7.43;2.67;;;5.20;97.40;;;;;;5015688;28;20026;-76
2021/04/12 04:42:49;;;;;;;5.82;2.30;;;5.30;97.40;;;;;;5006103;28;20089;-78
2021/04/12 04:45:42;;;;;;;11.50;2.53;;;5.30;97.40;;;;;;5014637;28;20037;-78
2021/04/12 04:48:35;;;;;;;13.50;3.20;;;5.20;97.50;;;;;;5015780;28;20038;-78
2021/04/12 04:51:35;;;;;;;4.65;2.15;;;5.10;97.50;;;;;;5015727;28;20044;-78
2021/04/12 04:54:15;;;;;;;6.30;2.00;;;5.20;97.60;;;;;;5005394;28;20038;-77
2021/04/12 04:57:09;;;;;;;10.70;2.97;;;5.10;97.60;;;;;;5015500;28;20045;-77
2021/04/12 05:00:12;;;;;;;7.25;2.70;;;5.10;97.50;;;;;;5014826;28;20034;-78
2021/04/12 05:02:56;;;;;;;7.90;2.42;;;5.10;97.60;;;;;;5006163;28;20129;-79
2021/04/12 05:05:57;;;;;;;6.72;2.88;;;5.10;97.60;;;;;;5014599;28;20033;-78
2021/04/12 05:08:56;;;;;;;4.68;2.47;;;5.10;97.60;;;;;;5014068;28;20352;-77
2021/04/12 05:11:36;;;;;;;7.10;2.60;;;5.20;97.60;;;;;;5014245;28;20364;-77
2021/04/12 05:14:24;;;;;;;4.80;2.47;;;5.20;97.50;;;;;;5015879;28;20109;-76
2021/04/12 05:17:28;;;;;;;7.30;2.45;;;5.30;97.40;;;;;;5016080;28;20041;-77
2021/04/12 05:20:16;;;;;;;10.02;3.47;;;5.20;97.40;;;;;;5015228;28;20045;-78
2021/04/12 05:23:19;;;;;;;6.30;2.83;;;5.20;97.60;;;;;;5014926;28;20044;-76
2021/04/12 05:26:07;;;;;;;9.68;2.70;;;5.40;97.40;;;;;;5011813;28;20061;-77
2021/04/12 05:28:47;;;;;;;7.25;2.35;;;5.40;97.40;;;;;;5008059;28;20065;-79
2021/04/12 05:31:40;;;;;;;9.48;2.30;;;5.50;97.30;;;;;;4992694;28;20117;-78
2021/04/12 05:34:27;;;;;;;6.18;2.35;;;5.50;97.20;;;;;;4991723;28;20117;-79
2021/04/12 05:37:06;;;;;;;8.98;2.25;;;5.50;97.20;;;;;;4992878;28;20054;-76
2021/04/12 05:39:56;;;;;;;4.53;2.50;;;5.50;97.20;;;;;;4992927;28;20313;-79
2021/04/12 05:43:00;;;;;;;7.40;2.45;;;5.70;97.10;;;;;;4993258;28;20282;-78
2021/04/12 05:45:38;;;;;;;6.35;2.38;;;5.70;97.10;;;;;;4992968;28;20062;-77
2021/04/12 05:48:21;;;;;;;10.02;2.33;;;5.70;97.00;;;;;;4991964;28;20037;-76
2021/04/12 05:51:08;;;;;;;7.90;2.28;;;5.80;96.90;;;;;;4992390;28;20031;-77
2021/04/12 05:54:04;;;;;;;6.22;2.28;;;5.70;96.80;;;;;;4992188;28;20034;-70
2021/04/12 05:57:01;;;;;;;7.63;2.10;;;5.80;96.80;;;;;;4991814;28;20045;-73
2021/04/12 05:59:42;;;;;;;;;;;5.80;96.80;;;;;;5007806;28;20042;-74
2021/04/12 06:02:18;;;;;;;12.48;2.63;;;5.80;97.00;;;;;;4992365;28;19976;-72
2021/04/12 06:04:56;;;;;;;10.60;2.15;;;5.80;97.00;;;;;;4993668;28;20452;-73
2021/04/12 06:07:39;;;;;;;;;;;5.80;97.00;;;;;;4992715;28;20097;-72
2021/04/12 06:10:19;;;;;;;9.73;2.30;;;5.80;97.00;;;;;;4990616;28;20266;-70
2021/04/12 06:13:35;;;;;;;10.43;2.10;;;5.90;97.00;;;;;;4991755;28;20026;-71
2021/04/12 06:16:12;;;;;;;6.07;2.38;;;5.80;96.80;;;;;;4991528;28;20042;-72
2021/04/12 06:19:06;;;;;;;5.68;2.38;;;5.90;97.10;;;;;;4991656;28;20042;-73
2021/04/12 06:22:05;;;;;;;11.38;2.40;;;5.90;96.80;;;;;;4991965;28;20057;-72
2021/04/12 06:25:06;;;;;;;7.53;3.03;;;6.10;96.80;;;;;;4991555;28;20033;-74
2021/04/12 06:28:15;;;;;;;10.15;3.10;;;6.20;96.70;;;;;;4990640;28;20046;-73
2021/04/12 06:31:24;;;;;;;11.82;2.20;;;6.10;96.50;;;;;;4991544;28;20050;-72
2021/04/12 06:34:47;;;;;;;7.55;1.83;;;6.10;96.50;;;;;;4990076;28;20049;-73
2021/04/12 06:37:47;;;;;;;7.75;2.35;;;6.10;96.50;;;;;;4988563;28;20126;-74
2021/04/12 06:40:16;;;;;;;8.55;2.05;;;6.20;96.50;;;;;;4989172;28;20026;-72
2021/04/12 06:43:35;;;;;;;6.55;2.08;;;6.10;96.40;;;;;;4969895;28;20046;-73
2021/04/12 06:46:19;;;;;;;4.55;2.10;;;6.10;96.30;;;;;;4970635;28;20050;-72
2021/04/12 06:48:47;;;;;;;8.10;2.15;;;6.20;96.50;;;;;;4971600;28;20031;-73
2021/04/12 06:51:31;;;;;;;5.80;1.92;;;6.10;96.40;;;;;;4970262;28;20413;-73
2021/04/12 06:54:34;;;;;;;15.00;2.90;;;6.10;96.70;;;;;;4970181;28;20130;-73
2021/04/12 06:57:29;;;;;;;13.48;3.22;;;6.20;96.60;;;;;;4970127;28;20038;-73
2021/04/12 07:00:33;;;;;;;17.60;2.85;;;6.20;96.40;;;;;;4971439;28;20205;-74
2021/04/12 07:03:33;;;;;;;8.65;2.05;;;6.30;96.50;;;;;;4971789;28;20042;-74
2021/04/12 07:06:16;;;;;;;6.22;2.05;;;6.30;96.30;;;;;;4971260;28;20035;-72
2021/04/12 07:09:07;;;;;;;4.93;2.13;;;6.40;96.10;;;;;;4971252;28;20043;-72
2021/04/12 07:12:09;;;;;;;7.45;2.08;;;6.30;95.60;;;;;;4971150;28;20303;-73
2021/04/12 07:14:59;;;;;;;18.23;2.58;;;6.50;95.60;;;;;;4971393;28;20094;-72
2021/04/12 07:18:03;;;;;;;4.60;1.70;;;6.60;95.40;;;;;;4971237;28;20043;-73
2021/04/12 07:20:34;;;;;;;7.05;1.70;;;6.80;95.40;;;;;;4970655;28;20093;-73
2021/04/12 07:23:37;;;;;;;7.65;2.08;;;6.90;95.10;;;;;;4973066;28;20086;-73
2021/04/12 07:26:23;;;;;;;5.35;1.73;;;7.00;95.00;;;;;;4969250;28;20050;-74
2021/04/12 07:29:26;;;;;;;4.07;1.73;;;7.20;95.00;;;;;;4972466;28;20111;-72
2021/04/12 07:32:07;;;;;;;11.15;2.28;;;7.40;94.80;;;;;;4971381;28;20030;-73
2021/04/12 07:35:10;;;;;;;10.63;2.55;;;7.40;94.10;;;;;;4970266;28;20046;-72
2021/04/12 07:38:17;;;;;;;7.45;2.30;;;7.60;94.30;;;;;;4983526;28;20047;-73
2021/04/12 07:41:14;;;;;;;6.97;1.83;;;7.80;93.80;;;;;;4987615;28;20058;-73
2021/04/12 07:44:17;;;;;;;7.65;2.45;;;7.70;93.60;;;;;;4990465;28;20124;-73
2021/04/12 07:47:40;;;;;;;6.18;2.05;;;8.00;93.80;;;;;;4990097;28;20038;-73
2021/04/12 07:50:24;;;;;;;6.20;1.65;;;8.10;93.20;;;;;;4948467;29;20069;-73
2021/04/12 07:53:08;;;;;;;4.25;1.65;;;8.10;92.80;;;;;;4950811;29;20027;-73
2021/04/12 07:55:52;;;;;;;6.10;1.70;;;8.20;93.10;;;;;;4972719;28;20042;-73
2021/04/12 07:58:23;;;;;;;8.77;2.22;;;8.40;93.00;;;;;;4990347;28;20046;-73
2021/04/12 08:01:06;;;;;;;3.28;1.60;;;8.20;92.60;;;;;;4990456;28;20170;-73
2021/04/12 08:03:50;;;;;;;4.65;1.75;;;8.20;92.70;;;;;;4990117;28;20034;-73
2021/04/12 08:06:57;;;;;;;8.40;1.90;;;8.10;92.80;;;;;;4990511;28;20030;-72
2021/04/12 08:09:48;;;;;;;8.27;1.98;;;8.40;93.00;;;;;;4988658;28;20042;-71
2021/04/12 08:12:51;;;;;;;4.57;2.22;;;8.80;92.10;;;;;;4989511;28;20058;-75
2021/04/12 08:16:03;;;;;;;8.43;1.40;;;9.80;92.10;;;;;;4988546;28;20096;-73
2021/04/12 08:19:02;;;;;;;9.73;1.58;;;10.90;90.00;;;;;;4989258;28;20063;-75
2021/04/12 08:21:53;;;;;;;9.10;1.52;;;12.20;86.90;;;;;;4989811;28;20034;-72
2021/04/12 08:24:43;;;;;;;4.53;1.70;;;13.40;82.00;;;;;;4989186;28;20141;-75
2021/04/12 08:27:36;;;;;;;5.43;1.75;;;13.50;77.00;;;;;;4989536;28;20041;-76
2021/04/12 08:30:20;;;;;;;7.03;1.30;;;14.30;77.00;;;;;;4990223;28;20047;-76
2021/04/12 08:33:27;;;;;;;5.68;1.55;;;15.70;71.90;;;;;;4989388;28;20052;-74
2021/04/12 08:36:14;;;;;;;7.30;1.57;;;16.20;68.30;;;;;;4989335;28;20061;-76
2021/04/12 08:39:17;;;;;;;4.25;1.52;;;17.30;63.50;;;;;;4988935;28;20524;-75
2021/04/12 08:42:07;;;;;;;7.93;1.98;;;17.00;60.50;;;;;;4988519;28;20027;-75
2021/04/12 08:44:54;;;;;;;3.50;1.55;;;15.60;58.70;;;;;;4988425;28;20379;-74
2021/04/12 08:47:40;;;;;;;7.05;1.55;;;15.60;58.60;;;;;;4989353;28;20062;-75
2021/04/12 08:50:34;;;;;;;3.25;1.23;;;14.90;59.90;;;;;;4989938;28;20034;-74
2021/04/12 08:53:24;;;;;;;5.53;1.13;;;15.50;60.20;;;;;;4991165;28;20037;-75
2021/04/12 08:56:21;;;;;;;4.22;1.63;;;15.40;57.00;;;;;;4990031;28;20404;-75
2021/04/12 08:59:24;;;;;;;6.07;2.17;;;15.00;56.40;;;;;;4991049;28;20130;-73
2021/04/12 09:01:59;;;;;;;7.75;1.10;;;14.80;57.00;;;;;;4993379;28;20252;-75
2021/04/12 09:04:33;;;;;;;6.50;1.27;;;14.60;56.80;;;;;;4991886;28;20030;-74
2021/04/12 09:07:36;;;;;;;5.03;1.17;;;14.80;57.70;;;;;;4991735;28;20122;-74
2021/04/12 09:10:46;;;;;;;5.95;1.17;;;14.00;55.60;;;;;;4992181;28;20137;-75
2021/04/12 09:13:14;;;;;;;5.93;1.13;;;13.70;58.10;;;;;;4993009;28;20042;-76
2021/04/12 09:15:51;;;;;;;3.20;1.30;;;15.00;57.80;;;;;;4991551;28;20177;-76
2021/04/12 09:18:29;;;;;;;3.75;1.08;;;16.40;56.80;;;;;;4992866;28;20750;-75
2021/04/12 09:21:22;;;;;;;3.72;1.00;;;15.70;53.80;;;;;;4992741;28;20048;-74
2021/04/12 09:24:23;;;;;;;3.33;1.35;;;15.30;54.80;;;;;;4992894;28;20101;-74
2021/04/12 09:27:34;;;;;;;5.13;1.40;;;14.90;55.10;;;;;;4990990;28;20088;-74
2021/04/12 09:30:33;;;;;;;6.60;1.70;;;14.40;55.30;;;;;;4986782;28;20156;-73
2021/04/12 09:33:36;;;;;;;3.65;1.20;;;14.00;56.70;;;;;;4992486;28;20038;-72
2021/04/12 09:36:26;;;;;;;2.47;1.20;;;13.20;58.70;;;;;;4992272;28;20049;-74
2021/04/12 09:39:00;;;;;;;10.45;1.05;;;13.70;57.10;;;;;;4992610;28;20405;-73
2021/04/12 09:41:56;;;;;;;5.55;1.13;;;14.80;56.50;;;;;;4991287;28;20636;-71
2021/04/12 09:44:55;;;;;;;5.68;1.38;;;15.60;56.70;;;;;;4992177;28;21092;-74
2021/04/12 09:47:58;;;;;;;7.20;1.45;;;16.40;54.20;;;;;;4992170;28;20124;-75
2021/04/12 09:50:58;;;;;;;6.57;1.10;;;17.70;53.50;;;;;;4992329;28;20096;-74
2021/04/12 09:54:16;;;;;;;10.20;1.45;;;17.50;48.10;;;;;;4972787;28;20042;-73
2021/04/12 09:56:49;;;;;;;8.13;1.30;;;16.70;49.20;;;;;;4966061;28;20042;-73
2021/04/12 09:59:33;;;;;;;6.03;1.00;;;14.70;49.50;;;;;;4972811;28;20051;-73
2021/04/12 10:02:35;;;;;;;4.45;1.08;;;13.60;51.20;;;;;;4973365;28;20607;-74
2021/04/12 10:05:54;;;;;;;10.00;1.13;;;13.10;53.50;;;;;;4973217;28;20041;-74
2021/04/12 10:08:53;;;;;;;8.18;1.13;;;12.90;53.80;;;;;;4933894;28;20058;-75
2021/04/12 10:11:25;;;;;;;8.13;1.80;;;14.00;52.80;;;;;;4971981;28;20023;-73
2021/04/12 10:13:57;;;;;;;6.05;0.90;;;15.20;51.50;;;;;;4973916;28;20051;-74
2021/04/12 10:16:31;;;;;;;4.85;0.85;;;15.00;49.50;;;;;;4972409;28;20046;-74
2021/04/12 10:19:20;;;;;;;2.50;0.70;;;15.70;49.50;;;;;;4972397;28;20042;-74
2021/04/12 10:21:54;;;;;;;9.38;1.60;;;16.20;49.20;;;;;;4972105;28;20031;-72
2021/04/12 10:24:32;;;;;;;13.18;4.60;;;17.30;51.00;;;;;;4972275;28;20046;-73
2021/04/12 10:27:19;;;;;;;5.35;1.10;;;18.00;47.20;;;;;;4971744;28;20031;-73
2021/04/12 10:30:04;;;;;;;4.93;1.07;;;19.70;44.50;;;;;;4971816;28;20537;-73
2021/04/12 10:32:36;;;;;;;5.38;1.17;;;18.10;40.80;;;;;;4970527;28;20070;-74
2021/04/12 10:35:09;;;;;;;2.78;0.73;;;17.90;42.70;;;;;;4988300;28;20504;-72
2021/04/12 10:38:09;;;;;;;3.03;0.57;;;17.50;43.00;;;;;;4972108;28;20059;-74
2021/04/12 10:40:46;;;;;;;4.65;0.95;;;16.70;43.20;;;;;;4972204;28;20047;-74
2021/04/12 10:43:24;;;;;;;4.32;1.05;;;16.70;43.80;;;;;;4972047;28;20429;-73
2021/04/12 10:45:56;;;;;;;6.75;1.25;;;17.20;43.50;;;;;;4971695;28;20537;-73
2021/04/12 10:48:49;;;;;;;2.65;0.90;;;17.40;44.80;;;;;;4971919;28;20047;-72
2021/04/12 10:51:21;;;;;;;6.00;0.98;;;17.60;44.60;;;;;;4963722;28;20043;-73
2021/04/12 10:54:14;;;;;;;2.78;0.90;;;17.70;42.50;;;;;;4971825;28;20034;-73
2021/04/12 10:57:03;;;;;;;3.20;1.08;;;18.30;43.00;;;;;;4971145;28;20074;-73
2021/04/12 10:59:43;;;;;;;4.55;0.80;;;18.30;42.00;;;;;;4970429;28;20122;-75
2021/04/12 11:02:21;;;;;;;4.72;1.00;;;17.90;38.90;;;;;;4971698;28;20503;-75
2021/04/12 11:04:55;;;;;;;;;;;18.10;40.20;;;;;;4973266;28;20129;-74
2021/04/12 11:07:42;;;;;;;3.75;0.80;;;17.50;40.00;;;;;;4971319;28;20292;-76
2021/04/12 11:10:45;;;;;;;3.70;1.00;;;17.10;40.40;;;;;;4970368;28;20081;-73
2021/04/12 11:13:46;;;;;;;4.20;0.80;;;16.80;41.70;;;;;;4971681;28;20261;-73
2021/04/12 11:16:14;;;;;;;4.40;0.85;;;16.00;41.50;;;;;;4969965;28;20046;-75
2021/04/12 11:18:52;;;;;;;;;;;15.30;43.30;;;;;;4971934;28;20418;-74
2021/04/12 11:21:21;;;;;;;4.45;0.88;;;14.70;44.80;;;;;;4970728;28;20248;-75
2021/04/12 11:23:56;;;;;;;3.08;0.70;;;14.80;44.90;;;;;;4970292;28;20093;-75
2021/04/12 11:26:39;;;;;;;4.97;0.60;;;14.10;45.30;;;;;;4971056;28;21547;-74
2021/04/12 11:29:10;;;;;;;3.92;1.00;;;14.10;44.00;;;;;;4970659;28;20033;-73
2021/04/12 11:31:53;;;;;;;4.90;1.27;;;14.10;42.80;;;;;;4972736;28;20030;-74
2021/04/12 11:34:37;;;;;;;3.50;0.80;;;13.90;43.70;;;;;;4971080;28;20038;-73
2021/04/12 11:37:21;;;;;;;5.28;0.88;;;14.10;43.60;;;;;;4970405;28;20055;-73
2021/04/12 11:40:04;;;;;;;3.78;0.80;;;14.40;43.20;;;;;;4969418;28;20031;-72
2021/04/12 11:42:35;;;;;;;3.38;0.93;;;13.90;44.30;;;;;;4970774;28;20039;-71
2021/04/12 11:45:17;;;;;;;1.25;0.35;;;14.10;43.40;;;;;;4985932;28;20038;-73
2021/04/12 11:48:17;;;;;;;1.73;0.50;;;14.00;42.00;;;;;;4970892;28;20468;-72
2021/04/12 11:51:02;;;;;;;4.10;1.08;;;14.30;41.50;;;;;;4970741;28;20038;-73
2021/04/12 11:53:27;;;;;;;8.38;2.90;;;14.10;42.00;;;;;;4971131;28;20045;-72
2021/04/12 11:56:27;;;;;;;7.50;2.88;;;14.10;43.30;;;;;;4971921;28;20022;-72
2021/04/12 11:59:13;;;;;;;4.43;1.23;;;13.70;42.80;;;;;;4971033;28;20066;-79
2021/04/12 12:02:09;;;;;;;3.45;0.80;;;13.70;44.60;;;;;;4970903;28;20034;-73
2021/04/12 12:04:59;;;;;;;6.43;1.25;;;13.60;45.00;;;;;;4986093;28;20030;-75
2021/04/12 12:07:49;;;;;;;4.47;1.17;;;13.20;47.10;;;;;;4970431;28;20190;-74
2021/04/12 12:10:51;;;;;;;2.33;0.65;;;13.20;51.30;;;;;;4985242;28;20159;-72
2021/04/12 12:13:38;;;;;;;4.03;0.77;;;13.50;52.60;;;;;;4970698;28;20085;-72
2021/04/12 12:16:23;;;;;;;2.75;1.08;;;13.40;52.20;;;;;;4970328;28;20051;-72
2021/04/12 12:19:10;;;;;;;1.20;0.70;;;13.20;48.70;;;;;;4970913;28;20030;-72
2021/04/12 12:21:38;;;;;;;3.75;0.80;;;13.10;45.90;;;;;;4970805;28;20031;-73
2021/04/12 12:24:12;;;;;;;2.30;0.75;;;13.50;45.60;;;;;;4970585;28;20027;-71
2021/04/12 12:27:04;;;;;;;1.70;0.70;;;13.10;43.70;;;;;;4970239;28;20118;-72
2021/04/12 12:29:43;;;;;;;3.72;0.90;;;13.00;44.30;;;;;;4985576;28;20468;-73
2021/04/12 12:32:15;;;;;;;3.22;0.70;;;13.00;43.60;;;;;;4969912;28;20023;-73
2021/04/12 12:34:47;;;;;;;1.30;0.68;;;13.00;43.60;;;;;;4974578;28;20034;-75
2021/04/12 12:37:20;;;;;;;2.53;0.80;;;12.40;45.10;;;;;;4973564;28;20055;-73
2021/04/12 12:39:50;;;;;;;2.95;0.65;;;12.40;46.50;;;;;;4974090;28;20027;-73
2021/04/12 12:42:24;;;;;;;2.80;0.85;;;12.50;47.00;;;;;;4973962;28;20043;-73
2021/04/12 12:44:52;;;;;;;4.55;0.77;;;12.80;47.60;;;;;;4974002;28;20303;-72
2021/04/12 12:47:23;;;;;;;4.40;1.20;;;12.30;48.60;;;;;;4988821;28;20033;-74
2021/04/12 12:50:04;;;;;;;11.75;4.10;;;11.90;49.70;;;;;;4975349;28;20035;-72
2021/04/12 12:52:40;;;;;;;1.35;0.20;;;12.10;48.60;;;;;;4974344;28;20054;-74
2021/04/12 12:55:19;;;;;;;4.70;0.55;;;11.80;46.90;;;;;;4973396;28;20053;-74
2021/04/12 12:57:46;;;;;;;2.15;0.47;;;11.80;47.30;;;;;;4974091;28;20039;-74
2021/04/12 13:00:31;;;;;;;6.22;0.57;;;11.70;48.30;;;;;;4988753;28;20764;-75
2021/04/12 13:02:56;;;;;;;2.53;0.63;;;12.00;49.50;;;;;;4973654;28;20042;-74
2021/04/12 13:05:23;;;;;;;1.75;0.50;;;11.90;49.60;;;;;;4973408;28;20416;-75
2021/04/12 13:07:51;;;;;;;1.58;0.38;;;11.70;50.80;;;;;;4974855;28;20026;-73
2021/04/12 13:10:17;;;;;;;5.05;0.77;;;11.50;50.60;;;;;;4988707;28;20070;-76
2021/04/12 13:12:48;;;;;;;4.55;0.57;;;11.60;49.60;;;;;;4973439;28;20536;-74
2021/04/12 13:15:39;;;;;;;2.38;1.35;;;11.30;48.90;;;;;;4973758;28;20125;-73
2021/04/12 13:18:20;;;;;;;5.43;1.65;;;11.40;48.70;;;;;;4973122;28;20117;-73
2021/04/12 13:20:49;;;;;;;0.88;0.50;;;11.10;47.50;;;;;;4973032;28;20508;-73
2021/04/12 13:23:19;;;;;;;2.08;0.63;;;10.90;48.20;;;;;;4972243;28;20605;-72
2021/04/12 13:25:51;;;;;;;1.38;0.60;;;11.10;48.60;;;;;;4974933;28;20035;-72
2021/04/12 13:28:39;;;;;;;1.88;0.40;;;11.40;49.10;;;;;;4973538;28;20043;-72
2021/04/12 13:31:12;;;;;;;2.67;0.35;;;11.50;48.60;;;;;;4972995;28;20042;-73
2021/04/12 13:33:48;;;;;;;2.67;0.82;;;11.50;46.90;;;;;;4973094;28;20540;-73
2021/04/12 13:36:23;;;;;;;4.63;0.77;;;11.80;46.90;;;;;;4972932;28;20112;-72
2021/04/12 13:38:52;;;;;;;2.20;0.30;;;11.70;46.00;;;;;;4988218;28;20519;-72
2021/04/12 13:41:23;;;;;;;;;;;11.90;46.00;;;;;;4973660;28;20035;-74
2021/04/12 13:43:54;;;;;;;5.93;0.57;;;11.80;46.80;;;;;;4974753;28;19902;-72
2021/04/12 13:46:25;;;;;;;2.45;0.70;;;11.70;46.50;;;;;;4986989;28;20035;-73
2021/04/12 13:49:15;;;;;;;1.67;0.70;;;11.50;47.50;;;;;;4987919;28;20050;-72
2021/04/12 13:51:45;;;;;;;4.88;0.80;;;11.50;47.40;;;;;;4972556;28;20404;-72
2021/04/12 13:54:51;;;;;;;3.50;0.80;;;11.40;47.70;;;;;;4987879;28;20122;-73
2021/04/12 13:57:51;;;;;;;0.85;0.50;;;11.40;48.40;;;;;;4972064;28;20502;-73
2021/04/12 14:00:27;;;;;;;2.45;0.65;;;11.20;49.90;;;;;;4972723;28;20140;-71
2021/04/12 14:03:02;;;;;;;0.73;0.52;;;11.30;50.60;;;;;;4972758;28;20047;-74
2021/04/12 14:05:37;;;;;;;3.28;0.82;;;11.30;51.10;;;;;;4970494;28;20038;-74
2021/04/12 14:08:15;;;;;;;3.20;0.82;;;11.50;51.10;;;;;;4992254;28;20112;-75
2021/04/12 14:10:58;;;;;;;2.38;0.82;;;11.50;50.60;;;;;;4993647;28;20050;-72
2021/04/12 14:13:39;;;;;;;5.35;0.77;;;11.40;50.90;;;;;;4991158;28;20095;-72
2021/04/12 14:16:07;;;;;;;1.25;0.50;;;11.60;51.00;;;;;;4991519;28;20122;-72
2021/04/12 14:18:39;;;;;;;4.57;1.42;;;11.50;47.50;;;;;;4990952;28;20023;-75
2021/04/12 14:21:43;;;;;;;4.88;0.68;;;11.30;46.30;;;;;;4991787;28;20125;-75
2021/04/12 14:24:22;;;;;;;2.53;0.80;;;11.20;46.60;;;;;;4980006;28;20031;-72
2021/04/12 14:26:59;;;;;;;1.65;0.60;;;11.10;47.20;;;;;;4972830;28;20078;-73
2021/04/12 14:29:28;;;;;;;2.75;0.93;;;11.00;48.10;;;;;;4972439;28;20097;-75
2021/04/12 14:32:00;;;;;;;5.18;1.30;;;10.90;50.10;;;;;;4974032;28;20019;-73
2021/04/12 14:34:32;;;;;;;6.32;1.10;;;10.40;55.20;;;;;;4972261;28;20469;-74